Аэропорт: Шереметьево. Москва

ICAO: UUEE

METAR:
2019/02/22 21:00
UUEE 222100Z 35006MPS CAVOK M08/M12 Q1027 R06R/420551 R06C/420545 NOSIG
METAR:
2019/02/22 21:24
TAF UUEE 221958Z 2221/2321 35007G13MPS 9999 SCT020 TXM05/2315Z TNM12/2304Z 
      BECMG 2305/2308 29005MPS 
     FM231500 26007MPS 3100 -SN FEW006 OVC011 
      TEMPO 2315/2321 1500 SN FEW005 OVC011